Time;durP1;ratioP1;P1;durP2;ratioP2;P2;SDS_P1;SDS_P2;PMS_P1;PMS_P2;Temp;Humidity;BMP_temperature;BMP_pressure;BME280_temperature;BME280_humidity;BME280_pressure;Samples;Min_cycle;Max_cycle;Signal;HPM_P1;HPM_P2
2021/07/06 00:01:36;;;;;;;;;;;;;;;26.12;59.11;99977.63;1842417;76;20158;-61
2021/07/06 00:04:02;;;;;;;;;;;;;;;26.14;59.07;99967.50;1839133;76;20463;-61
2021/07/06 00:06:28;;;;;;;;;;;;;;;26.14;59.09;99964.72;1842321;76;20414;-61
2021/07/06 00:08:54;;;;;;;;;;;;;;;26.14;59.08;99971.07;1836604;76;21990;-61
2021/07/06 00:11:20;;;;;;;;;;;;;;;26.14;59.08;99971.07;1839437;76;21580;-61
2021/07/06 00:13:46;;;;;;;;;;;;;;;26.13;59.07;99972.86;1794002;76;20169;-61
2021/07/06 00:16:13;;;;;;;;;;;;;;;26.12;59.08;99965.67;1799444;78;20178;-61
2021/07/06 00:18:40;;;;;;;;;;;;;;;26.10;59.08;99968.82;1789126;78;20159;-61
2021/07/06 00:21:07;;;;;;;;;;;;;;;26.08;59.09;99965.62;1781002;78;20955;-61
2021/07/06 00:23:32;;;;;;;;;;;;;;;26.07;59.14;99959.02;1786805;78;20151;-60
2021/07/06 00:25:58;;;;;;;;;;;;;;;26.04;59.16;99960.58;1798012;78;20261;-61
2021/07/06 00:28:24;;;;;;;;;;;;;;;26.01;59.19;99961.34;1796109;78;20221;-61
2021/07/06 00:30:51;;;;;;;;;;;;;;;26.02;59.22;99962.11;1799190;77;20228;-61
2021/07/06 00:33:18;;;;;;;;;;;;;;;25.99;59.28;99962.28;1786097;78;21138;-60
2021/07/06 00:35:44;;;;;;;;;;;;;;;25.97;59.30;99957.66;1790896;78;20392;-60
2021/07/06 00:38:10;;;;;;;;;;;;;;;25.96;59.36;99961.65;1787412;78;20212;-61
2021/07/06 00:40:36;;;;;;;;;;;;;;;25.94;59.42;99957.02;1787710;78;20302;-61
2021/07/06 00:43:02;;;;;;;;;;;;;;;25.92;59.46;99955.22;1780912;78;20180;-61
2021/07/06 00:45:28;;;;;;;;;;;;;;;25.90;59.53;99961.16;1790507;78;21224;-61
2021/07/06 00:47:54;;;;;;;;;;;;;;;25.88;59.58;99948.20;1789854;78;20189;-58
2021/07/06 00:50:22;;;;;;;;;;;;;;;25.88;59.63;99953.77;1781842;78;20130;-61
2021/07/06 00:52:49;;;;;;;;;;;;;;;25.86;59.69;99948.34;1789328;77;20151;-60
2021/07/06 00:55:14;;;;;;;;;;;;;;;25.83;59.73;99952.69;1783938;78;20139;-60
2021/07/06 00:57:40;;;;;;;;;;;;;;;25.81;59.80;99950.04;1785571;78;21170;-60
2021/07/06 01:00:12;;;;;;;;;;;;;;;25.80;59.85;99947.06;1790382;78;20870;-61
2021/07/06 01:02:39;;;;;;;;;;;;;;;25.79;59.90;99949.63;1785354;78;20184;-60
2021/07/06 01:05:07;;;;;;;;;;;;;;;25.76;59.97;99951.16;1784930;78;20388;-60
2021/07/06 01:07:34;;;;;;;;;;;;;;;25.76;60.00;99955.34;1789545;78;20233;-60
2021/07/06 01:10:00;;;;;;;;;;;;;;;25.75;60.07;99948.77;1785361;78;21098;-60
2021/07/06 01:12:26;;;;;;;;;;;;;;;25.76;60.08;99955.92;1803737;78;20181;-60
2021/07/06 01:14:52;;;;;;;;;;;;;;;25.78;60.13;99957.77;1801799;78;20146;-60
2021/07/06 01:17:28;;;;;;;;;;;;;;;25.79;60.23;99964.37;1804756;78;20261;-61
2021/07/06 01:19:58;;;;;;;;;;;;;;;25.81;60.28;99961.19;1805615;78;20703;-60
2021/07/06 01:22:26;;;;;;;;;;;;;;;25.85;60.32;99967.03;1793776;79;21950;-60
2021/07/06 01:24:52;;;;;;;;;;;;;;;25.88;60.36;99973.86;1794989;78;20087;-60
2021/07/06 01:27:18;;;;;;;;;;;;;;;25.93;60.40;99965.78;1761630;80;20213;-60
2021/07/06 01:29:44;;;;;;;;;;;;;;;25.96;60.44;99967.22;1774460;79;20230;-60
2021/07/06 01:32:10;;;;;;;;;;;;;;;26.00;60.43;99967.27;1778363;80;20175;-60
2021/07/06 01:34:36;;;;;;;;;;;;;;;26.03;60.44;99972.09;1754136;80;21183;-60
2021/07/06 01:37:02;;;;;;;;;;;;;;;26.06;60.44;99964.36;1776062;80;20441;-60
2021/07/06 01:39:29;;;;;;;;;;;;;;;26.09;60.43;99966.42;1776176;80;20820;-60
2021/07/06 01:41:56;;;;;;;;;;;;;;;26.10;60.40;99968.82;1768015;80;20208;-60
2021/07/06 01:44:25;;;;;;;;;;;;;;;26.11;60.38;99963.47;1779700;79;20373;-60
2021/07/06 01:46:51;;;;;;;;;;;;;;;26.12;60.34;99969.84;1806465;78;21183;-60
2021/07/06 01:49:17;;;;;;;;;;;;;;;26.12;60.29;99971.24;1774358;80;21227;-61
2021/07/06 01:51:43;;;;;;;;;;;;;;;26.11;60.26;99969.04;1803715;78;20203;-60
2021/07/06 01:54:10;;;;;;;;;;;;;;;26.10;60.24;99974.39;1802304;78;20254;-60
2021/07/06 01:56:39;;;;;;;;;;;;;;;26.09;60.22;99976.99;1806404;78;20249;-60
2021/07/06 01:59:05;;;;;;;;;;;;;;;26.08;60.21;99981.53;1822675;77;21850;-60
2021/07/06 02:01:32;;;;;;;;;;;;;;;26.06;60.22;99986.67;1830210;77;20166;-61
2021/07/06 02:03:58;;;;;;;;;;;;;;;26.03;60.20;99989.62;1820096;77;20166;-60
2021/07/06 02:06:23;;;;;;;;;;;;;;;26.01;60.22;99983.64;1813288;77;20728;-60
2021/07/06 02:08:49;;;;;;;;;;;;;;;26.00;60.26;99988.18;1825877;77;20166;-60
2021/07/06 02:11:15;;;;;;;;;;;;;;;25.98;60.28;99991.33;1827104;77;21841;-60
2021/07/06 02:13:41;;;;;;;;;;;;;;;25.95;60.29;99989.30;1821263;77;20191;-60
2021/07/06 02:16:07;;;;;;;;;;;;;;;25.92;60.33;99994.23;1808218;77;20201;-60
2021/07/06 02:18:33;;;;;;;;;;;;;;;25.89;60.35;99988.80;1808850;77;20131;-60
2021/07/06 02:20:59;;;;;;;;;;;;;;;25.86;60.41;99989.55;1813261;77;20167;-60
2021/07/06 02:23:26;;;;;;;;;;;;;;;25.85;60.44;99988.52;1815900;77;21159;-60
2021/07/06 02:25:53;;;;;;;;;;;;;;;25.81;60.47;99992.64;1812471;77;20192;-60
2021/07/06 02:28:19;;;;;;;;;;;;;;;25.79;60.51;99990.84;1816261;77;20139;-60
2021/07/06 02:30:44;;;;;;;;;;;;;;;25.77;60.56;99993.17;1816272;77;20476;-60
2021/07/06 02:33:10;;;;;;;;;;;;;;;25.76;60.59;99985.18;1811860;77;20448;-61
2021/07/06 02:35:36;;;;;;;;;;;;;;;25.74;60.65;99986.97;1817527;77;21111;-60
2021/07/06 02:38:03;;;;;;;;;;;;;;;25.71;60.67;99997.47;1810389;77;20181;-60
2021/07/06 02:40:28;;;;;;;;;;;;;;;25.71;60.71;99998.05;1817355;77;20410;-61
2021/07/06 02:42:56;;;;;;;;;;;;;;;25.69;60.77;99994.82;1818640;77;20780;-60
2021/07/06 02:45:23;;;;;;;;;;;;;;;25.68;60.78;99993.20;1819337;77;20233;-60
2021/07/06 02:47:50;;;;;;;;;;;;;;;25.66;60.83;99994.17;1809283;77;23248;-60
2021/07/06 02:50:17;;;;;;;;;;;;;;;25.64;60.86;99994.53;1852019;76;20123;-60
2021/07/06 02:52:43;;;;;;;;;;;;;;;25.63;60.89;99998.49;1801425;77;20918;-60
2021/07/06 02:55:10;;;;;;;;;;;;;;;25.65;60.89;99998.94;1791826;77;21378;-61
2021/07/06 02:57:37;;;;;;;;;;;;;;;25.67;60.96;100000.78;1819544;77;20551;-61
2021/07/06 03:00:15;;;;;;;;;;;;;;;25.67;60.99;99993.81;1812325;77;20364;-60
2021/07/06 03:02:44;;;;;;;;;;;;;;;25.71;61.05;99998.86;1814532;77;20130;-60
2021/07/06 03:05:11;;;;;;;;;;;;;;;25.74;61.09;99996.72;1816933;77;20119;-60
2021/07/06 03:07:38;;;;;;;;;;;;;;;25.77;61.12;99999.33;1824816;77;20430;-60
2021/07/06 03:10:06;;;;;;;;;;;;;;;25.81;61.15;99996.02;1852259;76;20151;-60
2021/07/06 03:12:32;;;;;;;;;;;;;;;25.85;61.16;99996.88;1842996;76;21294;-61
2021/07/06 03:14:58;;;;;;;;;;;;;;;25.89;61.16;99999.14;1854580;76;20785;-60
2021/07/06 03:17:24;;;;;;;;;;;;;;;25.93;61.14;99997.22;1816838;77;20175;-60
2021/07/06 03:19:50;;;;;;;;;;;;;;;25.96;61.13;99999.86;1843164;76;20641;-60
2021/07/06 03:22:15;;;;;;;;;;;;;;;25.98;61.10;99998.88;1826929;77;20162;-61
2021/07/06 03:24:41;;;;;;;;;;;;;;;25.99;61.09;99996.31;1851958;76;21180;-61
2021/07/06 03:27:07;;;;;;;;;;;;;;;26.00;61.06;99997.35;1852208;76;20189;-61
2021/07/06 03:29:33;;;;;;;;;;;;;;;26.01;61.00;100005.94;1834246;77;20299;-60
2021/07/06 03:31:59;;;;;;;;;;;;;;;26.01;60.94;100005.94;1807360;77;20689;-60
2021/07/06 03:34:25;;;;;;;;;;;;;;;26.02;60.90;100010.31;1818826;77;20156;-60
2021/07/06 03:36:51;;;;;;;;;;;;;;;26.01;60.87;100011.51;1855356;76;21114;-60
2021/07/06 03:39:17;;;;;;;;;;;;;;;26.00;60.85;100011.29;1855152;76;20231;-59
2021/07/06 03:41:43;;;;;;;;;;;;;;;25.99;60.81;100011.06;1856472;76;20503;-61
2021/07/06 03:44:09;;;;;;;;;;;;;;;25.97;60.82;100012.01;1842187;76;20785;-60
2021/07/06 03:46:35;;;;;;;;;;;;;;;25.95;60.78;100010.20;1843462;76;20482;-61
2021/07/06 03:49:01;;;;;;;;;;;;;;;25.93;60.81;100004.18;1840218;76;21129;-60
2021/07/06 03:51:27;;;;;;;;;;;;;;;25.90;60.81;100000.75;1843605;76;20211;-60
2021/07/06 03:53:53;;;;;;;;;;;;;;;25.88;60.82;100005.91;1837985;76;20456;-60
2021/07/06 03:56:19;;;;;;;;;;;;;;;25.86;60.83;99997.11;1839722;76;20753;-60
2021/07/06 03:58:45;;;;;;;;;;;;;;;25.82;60.84;99989.27;1844126;76;20810;-60
2021/07/06 04:01:11;;;;;;;;;;;;;;;25.82;60.88;99996.24;1839937;76;23341;-60
2021/07/06 04:03:37;;;;;;;;;;;;;;;25.79;60.89;100003.37;1804476;78;20147;-60
2021/07/06 04:06:03;;;;;;;;;;;;;;;25.78;60.95;100002.34;1828711;76;20205;-60
2021/07/06 04:08:29;;;;;;;;;;;;;;;25.76;60.99;100003.29;1812158;77;20138;-60
2021/07/06 04:10:55;;;;;;;;;;;;;;;25.74;61.02;100005.08;1833231;76;20854;-57
2021/07/06 04:13:21;;;;;;;;;;;;;;;25.74;61.06;100012.63;1827420;76;21931;-56
2021/07/06 04:15:47;;;;;;;;;;;;;;;25.73;61.07;100009.61;1793406;78;20129;-61
2021/07/06 04:18:13;;;;;;;;;;;;;;;25.71;61.14;100015.58;1786501;78;20204;-61
2021/07/06 04:20:39;;;;;;;;;;;;;;;25.71;61.17;100009.20;1786265;78;20817;-61
2021/07/06 04:23:04;;;;;;;;;;;;;;;25.71;61.18;100010.59;1798158;77;20833;-62
2021/07/06 04:25:31;;;;;;;;;;;;;;;25.70;61.20;100018.14;1794784;77;21852;-61
2021/07/06 04:27:57;;;;;;;;;;;;;;;25.69;61.20;100016.52;1802708;77;20185;-63
2021/07/06 04:30:23;;;;;;;;;;;;;;;25.68;61.24;100018.27;1802535;77;20283;-56
2021/07/06 04:32:49;;;;;;;;;;;;;;;25.69;61.28;100021.28;1793066;78;20692;-58
2021/07/06 04:35:18;;;;;;;;;;;;;;;25.70;61.26;100034.05;1790136;78;20242;-61
2021/07/06 04:37:44;;;;;;;;;;;;;;;25.72;61.33;100033.07;1780660;78;21125;-63
2021/07/06 04:40:11;;;;;;;;;;;;;;;25.74;61.36;100029.34;1767245;79;20258;-58
2021/07/06 04:42:37;;;;;;;;;;;;;;;25.77;61.43;100036.95;1781236;79;20798;-61
2021/07/06 04:45:04;;;;;;;;;;;;;;;25.81;61.47;100031.66;1773170;79;20193;-61
2021/07/06 04:47:30;;;;;;;;;;;;;;;25.85;61.47;100033.92;1776178;79;20401;-61
2021/07/06 04:49:56;;;;;;;;;;;;;;;25.90;61.46;100041.16;1787635;79;23373;-58
2021/07/06 04:52:22;;;;;;;;;;;;;;;25.93;61.47;100046.80;1775272;79;21493;-57
2021/07/06 04:54:48;;;;;;;;;;;;;;;25.99;61.48;100050.67;1771323;79;20168;-57
2021/07/06 04:57:13;;;;;;;;;;;;;;;26.03;61.45;100049.55;1775096;79;20165;-57
2021/07/06 04:59:39;;;;;;;;;;;;;;;26.06;61.41;100051.59;1791406;79;20224;-57
2021/07/06 05:02:05;;;;;;;;;;;;;;;26.10;61.35;100052.45;1779150;79;20984;-58
2021/07/06 05:04:32;;;;;;;;;;;;;;;26.13;61.32;100052.31;1780367;79;20354;-57
2021/07/06 05:06:58;;;;;;;;;;;;;;;26.15;61.24;100049.36;1771431;79;20172;-57
2021/07/06 05:09:24;;;;;;;;;;;;;;;26.16;61.17;100050.16;1797600;78;20202;-57
2021/07/06 05:11:50;;;;;;;;;;;;;;;26.16;61.13;100046.79;1791592;78;20815;-61
2021/07/06 05:14:16;;;;;;;;;;;;;;;26.18;61.07;100058.98;1811248;77;21141;-58
2021/07/06 05:16:42;;;;;;;;;;;;;;;26.16;61.01;100056.55;1836225;77;20335;-60
2021/07/06 05:19:07;;;;;;;;;;;;;;;26.16;61.00;100063.52;1837007;77;20165;-60
2021/07/06 05:21:33;;;;;;;;;;;;;;;26.15;60.96;100061.91;1833613;76;20188;-60
2021/07/06 05:24:00;;;;;;;;;;;;;;;26.14;60.92;100063.69;1833701;76;20336;-57
2021/07/06 05:26:26;;;;;;;;;;;;;;;26.12;60.93;100073.81;1826603;76;21281;-60
2021/07/06 05:28:53;;;;;;;;;;;;;;;26.11;60.93;100070.80;1828774;77;20183;-60
2021/07/06 05:31:18;;;;;;;;;;;;;;;26.11;60.97;100074.17;1836151;76;20543;-60
2021/07/06 05:33:44;;;;;;;;;;;;;;;26.09;60.95;100075.95;1827384;77;20862;-60
2021/07/06 05:36:11;;;;;;;;;;;;;;;26.08;60.95;100083.28;1830458;76;20147;-60
2021/07/06 05:38:37;;;;;;;;;;;;;;;26.07;60.95;100090.84;1832399;77;21138;-60
2021/07/06 05:41:05;;;;;;;;;;;;;;;26.06;60.95;100089.80;1829567;77;20113;-60
2021/07/06 05:43:31;;;;;;;;;;;;;;;26.04;60.97;100092.17;1830457;76;20149;-60
2021/07/06 05:45:57;;;;;;;;;;;;;;;26.03;61.00;100092.77;1837478;77;20189;-60
2021/07/06 05:48:23;;;;;;;;;;;;;;;26.02;61.00;100093.93;1835461;76;20164;-60
2021/07/06 05:50:49;;;;;;;;;;;;;;;26.00;61.02;100103.27;1830570;77;22026;-60
2021/07/06 05:53:15;;;;;;;;;;;;;;;25.98;61.06;100100.03;1840884;77;20187;-60
2021/07/06 05:55:42;;;;;;;;;;;;;;;25.97;61.07;100102.59;1833663;77;20099;-60
2021/07/06 05:58:08;;;;;;;;;;;;;;;25.96;61.10;100099.61;1821035;77;20448;-60
2021/07/06 06:00:37;;;;;;;;;;;;;;;25.94;61.15;100100.56;1834760;76;20180;-60
2021/07/06 06:03:04;;;;;;;;;;;;;;;25.93;61.15;100105.91;1821243;77;21096;-60
2021/07/06 06:05:30;;;;;;;;;;;;;;;25.91;61.18;100109.09;1827599;76;20164;-60
2021/07/06 06:07:56;;;;;;;;;;;;;;;25.89;61.21;100110.03;1839397;76;20736;-60
2021/07/06 06:10:21;;;;;;;;;;;;;;;25.89;61.23;100107.83;1832061;76;20737;-60
2021/07/06 06:12:48;;;;;;;;;;;;;;;25.90;61.24;100110.84;1835256;77;21113;-60
2021/07/06 06:15:14;;;;;;;;;;;;;;;25.91;61.28;100118.03;1827310;77;21123;-60
2021/07/06 06:17:40;;;;;;;;;;;;;;;25.93;61.31;100120.45;1831511;77;20190;-60
2021/07/06 06:20:07;;;;;;;;;;;;;;;25.94;61.36;100120.07;1828196;77;20255;-60
2021/07/06 06:22:33;;;;;;;;;;;;;;;25.97;61.40;100120.71;1855066;76;20161;-60
2021/07/06 06:25:00;;;;;;;;;;;;;;;26.01;61.40;100118.02;1819983;77;20163;-60
2021/07/06 06:27:26;;;;;;;;;;;;;;;26.04;61.43;100120.05;1802562;77;21132;-60
2021/07/06 06:29:52;;;;;;;;;;;;;;;26.07;61.44;100124.30;1838742;76;21596;-60
2021/07/06 06:32:17;;;;;;;;;;;;;;;26.09;61.44;100120.56;1840983;76;20138;-60
2021/07/06 06:34:44;;;;;;;;;;;;;;;26.13;61.43;100125.61;1789078;78;20162;-60
2021/07/06 06:37:10;;;;;;;;;;;;;;;26.17;61.41;100126.48;1805621;77;20118;-60
2021/07/06 06:39:36;;;;;;;;;;;;;;;26.20;61.40;100120.77;1817541;77;21073;-60
2021/07/06 06:42:03;;;;;;;;;;;;;;;26.23;61.38;100120.02;1816433;77;20114;-60
2021/07/06 06:44:29;;;;;;;;;;;;;;;26.25;61.33;100122.66;1819118;77;20368;-60
2021/07/06 06:46:55;;;;;;;;;;;;;;;26.27;61.28;100116.69;1814582;77;20169;-60
2021/07/06 06:49:21;;;;;;;;;;;;;;;26.28;61.23;100120.52;1815317;77;20184;-60
2021/07/06 06:51:47;;;;;;;;;;;;;;;26.28;61.17;100122.49;1819784;77;21060;-60
2021/07/06 06:54:12;;;;;;;;;;;;;;;26.29;61.11;100125.50;1818854;77;20221;-60
2021/07/06 06:56:41;;;;;;;;;;;;;;;26.28;61.07;100126.67;1818227;77;20753;-60
2021/07/06 06:59:07;;;;;;;;;;;;;;;26.27;61.04;100128.66;1819895;77;20487;-60
2021/07/06 07:01:34;;;;;;;;;;;;;;;26.28;61.00;100127.48;1827919;77;20184;-60
2021/07/06 07:04:00;;;;;;;;;;;;;;;26.27;60.98;100127.84;1816722;77;21127;-60
2021/07/06 07:06:26;;;;;;;;;;;;;;;26.25;60.96;100121.27;1829676;77;20393;-60
2021/07/06 07:08:52;;;;;;;;;;;;;;;26.23;60.95;100125.00;1816017;77;20456;-60
2021/07/06 07:11:18;;;;;;;;;;;;;;;26.21;60.93;100123.78;1817796;77;22213;-60
2021/07/06 07:13:44;;;;;;;;;;;;;;;26.19;60.93;100128.87;1822239;77;20256;-60
2021/07/06 07:16:10;;;;;;;;;;;;;;;26.17;60.95;100123.69;1816267;77;21211;-60
2021/07/06 07:18:35;;;;;;;;;;;;;;;26.14;60.97;100121.63;1815361;77;20210;-60
2021/07/06 07:21:01;;;;;;;;;;;;;;;26.13;61.02;100124.80;1826368;77;20176;-60
2021/07/06 07:23:28;;;;;;;;;;;;;;;26.11;61.01;100125.16;1808235;77;21166;-60
2021/07/06 07:25:53;;;;;;;;;;;;;;;26.10;61.05;100120.75;1823609;77;20253;-60
2021/07/06 07:28:19;;;;;;;;;;;;;;;26.08;61.06;100121.73;1816807;77;21164;-60
2021/07/06 07:30:46;;;;;;;;;;;;;;;26.07;61.09;100116.52;1813093;77;20202;-60
2021/07/06 07:33:12;;;;;;;;;;;;;;;26.05;61.10;100120.28;1818379;77;20130;-60
2021/07/06 07:35:37;;;;;;;;;;;;;;;26.03;61.13;100124.82;1854666;76;20174;-60
2021/07/06 07:38:03;;;;;;;;;;;;;;;26.03;61.14;100122.61;1827099;77;20768;-60
2021/07/06 07:40:29;;;;;;;;;;;;;;;26.00;61.19;100120.00;1834848;76;22049;-60
2021/07/06 07:42:55;;;;;;;;;;;;;;;25.98;61.21;100122.33;1838134;76;20163;-60
2021/07/06 07:45:21;;;;;;;;;;;;;;;25.97;61.23;100124.89;1836175;76;20166;-60
2021/07/06 07:47:47;;;;;;;;;;;;;;;25.95;61.26;100125.87;1836463;76;20159;-60
2021/07/06 07:50:14;;;;;;;;;;;;;;;25.94;61.30;100122.86;1834894;76;20134;-61
2021/07/06 07:52:39;;;;;;;;;;;;;;;25.92;61.31;100118.26;1835701;76;21022;-60
2021/07/06 07:55:07;;;;;;;;;;;;;;;25.95;61.33;100125.06;1839644;76;20381;-60
2021/07/06 07:57:33;;;;;;;;;;;;;;;25.94;61.39;100127.04;1832306;76;20392;-61
2021/07/06 07:59:59;;;;;;;;;;;;;;;25.96;61.43;100126.09;1837134;76;20193;-61
2021/07/06 08:02:24;;;;;;;;;;;;;;;25.99;61.49;100132.89;1836804;77;20274;-61
2021/07/06 08:04:51;;;;;;;;;;;;;;;25.99;61.53;100123.95;1837055;76;21032;-61
2021/07/06 08:07:17;;;;;;;;;;;;;;;26.04;61.56;100129.81;1805931;77;20980;-62
2021/07/06 08:09:43;;;;;;;;;;;;;;;26.06;61.58;100131.63;1845043;76;20259;-61
2021/07/06 08:12:10;;;;;;;;;;;;;;;26.11;61.58;100127.14;1826548;76;20224;-62
2021/07/06 08:14:36;;;;;;;;;;;;;;;26.14;61.56;100131.38;1838313;76;20135;-62
2021/07/06 08:17:03;;;;;;;;;;;;;;;26.19;61.54;100134.45;1835279;76;21129;-61
2021/07/06 08:19:29;;;;;;;;;;;;;;;26.21;61.53;100130.16;1827137;76;20223;-61
2021/07/06 08:21:55;;;;;;;;;;;;;;;26.23;61.49;100129.19;1831857;77;20134;-61
2021/07/06 08:24:21;;;;;;;;;;;;;;;26.25;61.46;100136.61;1832275;77;20180;-61
2021/07/06 08:26:47;;;;;;;;;;;;;;;26.26;61.41;100138.81;1833686;77;20131;-61
2021/07/06 08:29:13;;;;;;;;;;;;;;;26.26;61.36;100142.41;1835659;76;21193;-61
2021/07/06 08:31:39;;;;;;;;;;;;;;;26.27;61.31;100142.59;1835293;76;20231;-61
2021/07/06 08:34:05;;;;;;;;;;;;;;;26.26;61.26;100143.80;1816208;77;20275;-61
2021/07/06 08:36:31;;;;;;;;;;;;;;;26.26;61.23;100144.39;1816186;77;20183;-61
2021/07/06 08:38:57;;;;;;;;;;;;;;;26.24;61.21;100144.74;1820213;77;20169;-62
2021/07/06 08:41:23;;;;;;;;;;;;;;;26.23;61.18;100147.31;1817492;77;21298;-61
2021/07/06 08:43:52;;;;;;;;;;;;;;;26.21;61.17;100144.69;1815522;77;20102;-62
2021/07/06 08:46:19;;;;;;;;;;;;;;;26.19;61.14;100140.83;1814886;77;20377;-62
2021/07/06 08:48:47;;;;;;;;;;;;;;;26.18;61.14;100146.80;1816913;77;20170;-62
2021/07/06 08:51:17;;;;;;;;;;;;;;;26.15;61.14;100136.38;1814518;77;20547;-61
2021/07/06 08:53:43;;;;;;;;;;;;;;;26.12;61.16;100137.93;1812715;77;21704;-61
2021/07/06 08:56:09;;;;;;;;;;;;;;;26.10;61.17;100152.81;1815906;78;20082;-61
2021/07/06 08:58:35;;;;;;;;;;;;;;;26.09;61.19;100140.08;1801044;77;20288;-61
2021/07/06 09:01:01;;;;;;;;;;;;;;;26.06;61.20;100139.41;1792848;77;20186;-61
2021/07/06 09:03:48;;;;;;;;;;;;;;;26.04;61.20;100139.56;1804719;77;20452;-61
2021/07/06 09:06:14;;;;;;;;;;;;;;;26.02;61.23;100142.71;1831164;77;20988;-61
2021/07/06 09:08:40;;;;;;;;;;;;;;;26.00;61.24;100138.11;1828908;77;20790;-61
2021/07/06 09:11:15;;;;;;;;;;;;;;;25.99;61.28;100143.46;1831881;77;20196;-61
2021/07/06 09:13:41;;;;;;;;;;;;;;;25.97;61.31;100136.66;1829303;77;20167;-61
2021/07/06 09:16:07;;;;;;;;;;;;;;;25.97;61.34;100140.22;1826473;77;20731;-61
2021/07/06 09:18:33;;;;;;;;;;;;;;;25.95;61.35;100141.78;1831728;77;21146;-61
2021/07/06 09:21:05;;;;;;;;;;;;;;;25.94;61.36;100149.34;1832830;77;21534;-61
2021/07/06 09:23:34;;;;;;;;;;;;;;;25.93;61.37;100151.89;1835007;76;20210;-61
2021/07/06 09:26:15;;;;;;;;;;;;;;;25.91;61.40;100147.30;1829654;77;20730;-61
2021/07/06 09:28:43;;;;;;;;;;;;;;;25.91;61.44;100143.92;1834329;76;20167;-61
2021/07/06 09:31:21;;;;;;;;;;;;;;;25.91;61.43;100161.23;1795232;77;21177;-61
2021/07/06 09:34:09;;;;;;;;;;;;;;;25.90;61.43;100158.22;1803807;77;20156;-61
2021/07/06 09:36:43;;;;;;;;;;;;;;;25.93;61.44;100160.88;1816450;77;20203;-60
2021/07/06 09:39:12;;;;;;;;;;;;;;;25.94;61.45;100154.91;1825794;76;20818;-60
2021/07/06 09:41:39;;;;;;;;;;;;;;;25.96;61.45;100158.15;1816403;77;20195;-60
2021/07/06 09:44:16;;;;;;;;;;;;;;;26.00;61.49;100169.36;1813775;77;21120;-60
2021/07/06 09:46:50;;;;;;;;;;;;;;;26.04;61.51;100163.27;1816181;77;20192;-60
2021/07/06 09:49:18;;;;;;;;;;;;;;;26.08;61.49;100164.94;1807434;77;20482;-60
2021/07/06 09:51:44;;;;;;;;;;;;;;;26.12;61.52;100167.20;1805707;77;20184;-60
2021/07/06 09:54:10;;;;;;;;;;;;;;;26.17;61.47;100166.91;1817368;77;20428;-60
2021/07/06 09:56:41;;;;;;;;;;;;;;;26.21;61.45;100166.41;1795663;78;21136;-60
2021/07/06 09:59:07;;;;;;;;;;;;;;;26.25;61.40;100174.25;1833733;76;20212;-60
2021/07/06 10:01:33;;;;;;;;;;;;;;;26.29;61.36;100176.52;1808212;78;20173;-60
2021/07/06 10:03:59;;;;;;;;;;;;;;;26.31;61.31;100169.95;1799873;78;20143;-60
2021/07/06 10:06:29;;;;;;;;;;;;;;;26.34;61.25;100175.40;1843009;76;20205;-60
2021/07/06 10:08:55;;;;;;;;;;;;;;;26.34;61.19;100169.23;1858775;76;21252;-60
2021/07/06 10:11:22;;;;;;;;;;;;;;;26.36;61.10;100175.23;1855240;76;20218;-60
2021/07/06 10:13:48;;;;;;;;;;;;;;;26.36;61.04;100174.42;1842101;76;20306;-60
2021/07/06 10:16:15;;;;;;;;;;;;;;;26.38;60.98;100176.27;1814027;77;22213;-60
2021/07/06 10:18:42;;;;;;;;;;;;;;;26.37;60.91;100176.04;1846348;77;20190;-61
2021/07/06 10:21:07;;;;;;;;;;;;;;;26.37;60.85;100177.44;1855385;76;21157;-61
2021/07/06 10:23:34;;;;;;;;;;;;;;;26.36;60.79;100175.23;1827740;77;20878;-60
2021/07/06 10:26:01;;;;;;;;;;;;;;;26.35;60.74;100179.19;1854364;76;20087;-60
2021/07/06 10:28:27;;;;;;;;;;;;;;;26.34;60.68;100174.81;1853152;76;20140;-60
2021/07/06 10:30:53;;;;;;;;;;;;;;;26.34;60.64;100169.23;1853947;76;20201;-60
2021/07/06 10:33:32;;;;;;;;;;;;;;;26.34;60.60;100169.23;1858989;76;21109;-60
2021/07/06 10:35:59;;;;;;;;;;;;;;;26.34;60.56;100171.22;1857642;75;20578;-59
2021/07/06 10:38:32;;;;;;;;;;;;;;;26.33;60.50;100173.78;1858618;76;20231;-60
2021/07/06 10:41:01;;;;;;;;;;;;;;;26.33;60.49;100173.20;1824356;77;20515;-60
2021/07/06 10:43:31;;;;;;;;;;;;;;;26.32;60.46;100179.13;1853306;76;20141;-60
2021/07/06 10:46:14;;;;;;;;;;;;;;;26.32;60.45;100171.58;1827401;77;21979;-60
2021/07/06 10:48:45;;;;;;;;;;;;;;;26.31;60.41;100176.93;1821277;77;20156;-60
2021/07/06 10:51:38;;;;;;;;;;;;;;;26.30;60.37;100172.55;1841278;76;20183;-60
2021/07/06 10:54:07;;;;;;;;;;;;;;;26.31;60.35;100171.35;1866735;76;20162;-60
2021/07/06 10:56:35;;;;;;;;;;;;;;;26.30;60.33;100175.34;1820308;77;20138;-61
2021/07/06 10:59:04;;;;;;;;;;;;;;;26.31;60.31;100167.75;1821350;77;21138;-60
2021/07/06 11:01:45;;;;;;;;;;;;;;;26.30;60.30;100175.34;1849063;76;20175;-60
2021/07/06 11:04:12;;;;;;;;;;;;;;;26.30;60.26;100168.37;1832500;76;20587;-60
2021/07/06 11:06:47;;;;;;;;;;;;;;;26.31;60.24;100171.94;1837021;77;22130;-61
2021/07/06 11:09:29;;;;;;;;;;;;;;;26.30;60.24;100169.77;1856315;76;20210;-60
2021/07/06 11:12:24;;;;;;;;;;;;;;;26.31;60.23;100171.94;1856309;75;21057;-60
2021/07/06 11:15:01;;;;;;;;;;;;;;;26.32;60.19;100167.98;1860828;76;20410;-60
2021/07/06 11:17:48;;;;;;;;;;;;;;;26.31;60.15;100161.59;1847968;76;20428;-61
2021/07/06 11:20:17;;;;;;;;;;;;;;;26.33;60.12;100159.84;1859917;75;20196;-61
2021/07/06 11:22:49;;;;;;;;;;;;;;;26.33;60.10;100157.86;1849277;75;20618;-63
2021/07/06 11:25:29;;;;;;;;;;;;;;;26.34;60.09;100156.69;1818968;77;21152;-62
2021/07/06 11:28:04;;;;;;;;;;;;;;;26.35;60.07;100152.70;1847094;76;20304;-62
2021/07/06 11:30:38;;;;;;;;;;;;;;;26.38;60.04;100150.36;1857772;76;20161;-62
2021/07/06 11:33:20;;;;;;;;;;;;;;;26.36;60.02;100152.92;1859162;76;20452;-62
2021/07/06 11:35:52;;;;;;;;;;;;;;;26.38;60.00;100151.75;1833291;76;20168;-61
2021/07/06 11:38:35;;;;;;;;;;;;;;;26.38;59.99;100155.34;1860520;76;23211;-59
2021/07/06 11:41:01;;;;;;;;;;;;;;;26.39;59.98;100146.39;1790504;77;20725;-61
2021/07/06 11:43:29;;;;;;;;;;;;;;;26.40;59.92;100144.61;1832900;77;20172;-61
2021/07/06 11:46:04;;;;;;;;;;;;;;;26.44;59.95;100150.27;1835937;76;20652;-61
2021/07/06 11:48:31;;;;;;;;;;;;;;;26.46;59.99;100153.48;1826835;76;20156;-62
2021/07/06 11:51:03;;;;;;;;;;;;;;;26.52;60.01;100156.18;1824031;77;21144;-62
2021/07/06 11:53:37;;;;;;;;;;;;;;;26.58;60.03;100150.48;1822764;77;21520;-62
2021/07/06 11:56:04;;;;;;;;;;;;;;;26.64;60.04;100147.61;1843411;77;20441;-62
2021/07/06 11:58:31;;;;;;;;;;;;;;;26.68;60.02;100146.48;1829470;77;20142;-62
2021/07/06 12:01:01;;;;;;;;;;;;;;;26.73;60.01;100146.14;1828789;77;20443;-62
2021/07/06 12:03:29;;;;;;;;;;;;;;;26.78;60.00;100147.22;1799814;77;21487;-62
2021/07/06 12:06:00;;;;;;;;;;;;;;;26.83;59.96;100149.70;1840114;77;20138;-61
2021/07/06 12:08:34;;;;;;;;;;;;;;;26.90;59.93;100137.08;1835163;77;20446;-62
2021/07/06 12:11:06;;;;;;;;;;;;;;;26.94;59.89;100144.32;1854917;75;20135;-62
2021/07/06 12:13:45;;;;;;;;;;;;;;;26.98;59.81;100140.98;1862927;75;20178;-62
2021/07/06 12:16:16;;;;;;;;;;;;;;;27.01;59.73;100126.86;1855469;75;21752;-62
2021/07/06 12:18:56;;;;;;;;;;;;;;;27.02;59.66;100139.05;1840477;76;20122;-62
2021/07/06 12:21:32;;;;;;;;;;;;;;;27.02;59.60;100139.05;1799112;77;20141;-61
2021/07/06 12:24:02;;;;;;;;;;;;;;;27.01;59.53;100133.25;1856093;75;20403;-62
2021/07/06 12:26:29;;;;;;;;;;;;;;;27.00;59.49;100133.02;1806850;76;20256;-62
2021/07/06 12:28:55;;;;;;;;;;;;;;;26.99;59.47;100132.80;1810149;78;21082;-62
2021/07/06 12:31:31;;;;;;;;;;;;;;;26.99;59.42;100139.01;1845030;76;20373;-61
2021/07/06 12:34:17;;;;;;;;;;;;;;;26.98;59.41;100143.78;1825802;77;20148;-61
2021/07/06 12:36:46;;;;;;;;;;;;;;;26.98;59.42;100137.39;1817698;77;20954;-61
2021/07/06 12:39:21;;;;;;;;;;;;;;;26.98;59.37;100134.59;1822048;77;20212;-61
2021/07/06 12:41:52;;;;;;;;;;;;;;;26.95;59.38;100126.37;1826364;77;21060;-61
2021/07/06 12:44:30;;;;;;;;;;;;;;;26.95;59.39;100124.16;1828663;77;20158;-61